Time;durP1;ratioP1;P1;durP2;ratioP2;P2;SDS_P1;SDS_P2;PMS_P1;PMS_P2;Temp;Humidity;BMP_temperature;BMP_pressure;BME280_temperature;BME280_humidity;BME280_pressure;Samples;Min_cycle;Max_cycle;Signal;HPM_P1;HPM_P2
2020/03/06 00:02:11;;;;;;;0.6;0.5;;;;;;;;;;;;;
2020/03/06 00:04:36;;;;;;;0.7;0.5;;;;;;;;;;;;;
2020/03/06 00:07:01;;;;;;;1;0.7;;;;;;;;;;;;;
2020/03/06 00:09:26;;;;;;;1.1;0.6;;;;;;;;;;;;;
2020/03/06 00:11:51;;;;;;;1;0.6;;;;;;;;;;;;;
2020/03/06 00:14:16;;;;;;;0.7;0.6;;;;;;;;;;;;;
2020/03/06 00:16:41;;;;;;;0.8;0.6;;;;;;;;;;;;;
2020/03/06 00:19:06;;;;;;;0.6;0.5;;;;;;;;;;;;;
2020/03/06 00:21:31;;;;;;;0.6;0.6;;;;;;;;;;;;;
2020/03/06 00:23:56;;;;;;;0.9;0.6;;;;;;;;;;;;;
2020/03/06 00:26:21;;;;;;;0.6;0.6;;;;;;;;;;;;;
2020/03/06 00:28:47;;;;;;;0.6;0.5;;;;;;;;;;;;;
2020/03/06 00:31:12;;;;;;;0.6;0.5;;;;;;;;;;;;;
2020/03/06 00:33:37;;;;;;;0.8;0.5;;;;;;;;;;;;;
2020/03/06 00:36:02;;;;;;;1.1;0.5;;;;;;;;;;;;;
2020/03/06 00:38:27;;;;;;;0.4;0.4;;;;;;;;;;;;;
2020/03/06 00:40:52;;;;;;;0.7;0.4;;;;;;;;;;;;;
2020/03/06 00:43:17;;;;;;;0.4;0.4;;;;;;;;;;;;;
2020/03/06 00:45:42;;;;;;;0.4;0.4;;;;;;;;;;;;;
2020/03/06 00:48:07;;;;;;;0.5;0.3;;;;;;;;;;;;;
2020/03/06 00:50:32;;;;;;;0.7;0.3;;;;;;;;;;;;;
2020/03/06 00:52:57;;;;;;;0.5;0.4;;;;;;;;;;;;;
2020/03/06 00:55:23;;;;;;;0.3;0.3;;;;;;;;;;;;;
2020/03/06 00:57:48;;;;;;;0.4;0.4;;;;;;;;;;;;;
2020/03/06 01:00:13;;;;;;;0.7;0.3;;;;;;;;;;;;;
2020/03/06 01:02:38;;;;;;;0.4;0.4;;;;;;;;;;;;;
2020/03/06 01:05:03;;;;;;;0.4;0.4;;;;;;;;;;;;;
2020/03/06 01:07:28;;;;;;;0.7;0.4;;;;;;;;;;;;;
2020/03/06 01:09:53;;;;;;;0.4;0.4;;;;;;;;;;;;;
2020/03/06 01:12:18;;;;;;;0.3;0.3;;;;;;;;;;;;;
2020/03/06 01:14:43;;;;;;;0.6;0.5;;;;;;;;;;;;;
2020/03/06 01:17:09;;;;;;;0.3;0.3;;;;;;;;;;;;;
2020/03/06 01:19:34;;;;;;;0.4;0.4;;;;;;;;;;;;;
2020/03/06 01:21:59;;;;;;;0.4;0.4;;;;;;;;;;;;;
2020/03/06 01:24:24;;;;;;;0.4;0.4;;;;;;;;;;;;;
2020/03/06 01:26:49;;;;;;;0.5;0.4;;;;;;;;;;;;;
2020/03/06 01:29:14;;;;;;;0.3;0.3;;;;;;;;;;;;;
2020/03/06 01:31:39;;;;;;;0.4;0.3;;;;;;;;;;;;;
2020/03/06 01:34:04;;;;;;;0.3;0.3;;;;;;;;;;;;;
2020/03/06 01:36:29;;;;;;;1.5;0.4;;;;;;;;;;;;;
2020/03/06 01:38:55;;;;;;;0.3;0.3;;;;;;;;;;;;;
2020/03/06 01:41:20;;;;;;;0.3;0.3;;;;;;;;;;;;;
2020/03/06 01:43:45;;;;;;;0.4;0.3;;;;;;;;;;;;;
2020/03/06 01:46:10;;;;;;;0.3;0.3;;;;;;;;;;;;;
2020/03/06 01:48:35;;;;;;;0.3;0.3;;;;;;;;;;;;;
2020/03/06 01:51:00;;;;;;;0.3;0.3;;;;;;;;;;;;;
2020/03/06 01:53:25;;;;;;;0.2;0.2;;;;;;;;;;;;;
2020/03/06 01:55:50;;;;;;;0.4;0.4;;;;;;;;;;;;;
2020/03/06 01:58:15;;;;;;;1;0.4;;;;;;;;;;;;;
2020/03/06 02:00:40;;;;;;;0.4;0.4;;;;;;;;;;;;;
2020/03/06 02:03:06;;;;;;;0.8;0.5;;;;;;;;;;;;;
2020/03/06 02:05:31;;;;;;;0.7;0.4;;;;;;;;;;;;;
2020/03/06 02:07:56;;;;;;;0.4;0.4;;;;;;;;;;;;;
2020/03/06 02:10:21;;;;;;;0.5;0.4;;;;;;;;;;;;;
2020/03/06 02:12:46;;;;;;;0.5;0.4;;;;;;;;;;;;;
2020/03/06 02:15:11;;;;;;;0.7;0.4;;;;;;;;;;;;;
2020/03/06 02:17:36;;;;;;;0.6;0.4;;;;;;;;;;;;;
2020/03/06 02:20:01;;;;;;;0.4;0.4;;;;;;;;;;;;;
2020/03/06 02:22:27;;;;;;;0.5;0.4;;;;;;;;;;;;;
2020/03/06 02:24:52;;;;;;;0.4;0.4;;;;;;;;;;;;;
2020/03/06 02:27:17;;;;;;;0.5;0.4;;;;;;;;;;;;;
2020/03/06 02:29:42;;;;;;;0.4;0.4;;;;;;;;;;;;;
2020/03/06 02:32:08;;;;;;;0.3;0.3;;;;;;;;;;;;;
2020/03/06 02:34:32;;;;;;;0.4;0.4;;;;;;;;;;;;;
2020/03/06 02:36:57;;;;;;;0.6;0.4;;;;;;;;;;;;;
2020/03/06 02:39:23;;;;;;;0.3;0.3;;;;;;;;;;;;;
2020/03/06 02:41:48;;;;;;;0.9;0.4;;;;;;;;;;;;;
2020/03/06 02:44:13;;;;;;;0.4;0.4;;;;;;;;;;;;;
2020/03/06 02:46:38;;;;;;;0.8;0.5;;;;;;;;;;;;;
2020/03/06 02:49:04;;;;;;;0.7;0.4;;;;;;;;;;;;;
2020/03/06 02:51:28;;;;;;;0.4;0.4;;;;;;;;;;;;;
2020/03/06 02:53:53;;;;;;;0.5;0.5;;;;;;;;;;;;;
2020/03/06 02:56:18;;;;;;;0.5;0.5;;;;;;;;;;;;;
2020/03/06 02:58:44;;;;;;;0.7;0.5;;;;;;;;;;;;;
2020/03/06 03:01:09;;;;;;;0.4;0.4;;;;;;;;;;;;;
2020/03/06 03:03:34;;;;;;;0.4;0.4;;;;;;;;;;;;;
2020/03/06 03:05:59;;;;;;;0.8;0.6;;;;;;;;;;;;;
2020/03/06 03:08:25;;;;;;;0.5;0.5;;;;;;;;;;;;;
2020/03/06 03:10:50;;;;;;;0.9;0.5;;;;;;;;;;;;;
2020/03/06 03:13:15;;;;;;;0.7;0.4;;;;;;;;;;;;;
2020/03/06 03:15:40;;;;;;;0.6;0.4;;;;;;;;;;;;;
2020/03/06 03:18:05;;;;;;;0.4;0.4;;;;;;;;;;;;;
2020/03/06 03:20:30;;;;;;;0.4;0.4;;;;;;;;;;;;;
2020/03/06 03:22:55;;;;;;;0.4;0.4;;;;;;;;;;;;;
2020/03/06 03:25:20;;;;;;;0.8;0.5;;;;;;;;;;;;;
2020/03/06 03:27:45;;;;;;;0.8;0.5;;;;;;;;;;;;;
2020/03/06 03:30:11;;;;;;;1.2;0.5;;;;;;;;;;;;;
2020/03/06 03:32:36;;;;;;;1.1;0.4;;;;;;;;;;;;;
2020/03/06 03:35:01;;;;;;;0.8;0.4;;;;;;;;;;;;;
2020/03/06 03:37:26;;;;;;;0.4;0.4;;;;;;;;;;;;;
2020/03/06 03:39:51;;;;;;;0.4;0.4;;;;;;;;;;;;;
2020/03/06 03:42:16;;;;;;;0.4;0.4;;;;;;;;;;;;;
2020/03/06 03:44:41;;;;;;;0.5;0.5;;;;;;;;;;;;;
2020/03/06 03:47:06;;;;;;;0.4;0.4;;;;;;;;;;;;;
2020/03/06 03:49:32;;;;;;;0.3;0.3;;;;;;;;;;;;;
2020/03/06 03:51:57;;;;;;;0.4;0.4;;;;;;;;;;;;;
2020/03/06 03:54:22;;;;;;;0.3;0.3;;;;;;;;;;;;;
2020/03/06 03:56:47;;;;;;;0.3;0.3;;;;;;;;;;;;;
2020/03/06 03:59:12;;;;;;;0.4;0.4;;;;;;;;;;;;;
2020/03/06 04:02:28;;;;;;;0.4;0.4;;;;;;;7.45;88.49609;976.5745;;;;
2020/03/06 04:04:53;;;;;;;0.5;0.4;;;;;;;7.36;89.02539;976.6691;;;;
2020/03/06 04:07:18;;;;;;;0.4;0.4;;;;;;;7.39;89.04199;976.7131;;;;
2020/03/06 04:09:43;;;;;;;0.4;0.4;;;;;;;7.38;88.78809;976.6902;;;;
2020/03/06 04:12:08;;;;;;;0.9;0.3;;;;;;;7.45;86.85938;976.7316;;;;
2020/03/06 04:14:33;;;;;;;0.3;0.3;;;;;;;7.47;85.92188;976.8269;;;;
2020/03/06 04:16:58;;;;;;;0.4;0.4;;;;;;;7.52;85.74902;976.6801;;;;
2020/03/06 04:19:23;;;;;;;0.5;0.5;;;;;;;7.57;84.44043;976.7014;;;;
2020/03/06 04:21:48;;;;;;;0.3;0.3;;;;;;;7.52;85.43066;976.9582;;;;
2020/03/06 04:24:13;;;;;;;0.4;0.4;;;;;;;7.54;85.77539;976.9568;;;;
2020/03/06 04:26:39;;;;;;;0.3;0.3;;;;;;;7.53;83.75;976.7862;;;;
2020/03/06 04:29:04;;;;;;;1.4;0.6;;;;;;;7.57;84.62207;976.9064;;;;
2020/03/06 04:31:29;;;;;;;0.3;0.3;;;;;;;7.46;84.68848;976.9654;;;;
2020/03/06 04:33:54;;;;;;;0.9;0.6;;;;;;;7.47;84.72656;977.0638;;;;
2020/03/06 04:36:19;;;;;;;0.4;0.3;;;;;;;7.45;85.05273;977.0108;;;;
2020/03/06 04:38:44;;;;;;;0.3;0.3;;;;;;;7.37;85.26563;977.0168;;;;
2020/03/06 04:41:09;;;;;;;0.4;0.4;;;;;;;7.34;85.33789;976.8699;;;;
2020/03/06 04:43:34;;;;;;;0.3;0.3;;;;;;;7.34;85.57617;976.5676;;;;
2020/03/06 04:45:59;;;;;;;0.4;0.4;;;;;;;7.27;87.12988;976.9953;;;;
2020/03/06 04:48:24;;;;;;;0.7;0.4;;;;;;;7.38;86.84668;977.2026;;;;
2020/03/06 04:50:49;;;;;;;0.8;0.3;;;;;;;7.33;85.16504;977.2048;;;;
2020/03/06 04:53:15;;;;;;;0.4;0.4;;;;;;;7.24;85.8291;977.0933;;;;
2020/03/06 04:55:40;;;;;;;0.9;0.4;;;;;;;7.28;86.1543;977.3093;;;;
2020/03/06 04:58:05;;;;;;;0.4;0.4;;;;;;;7.32;84.40234;977.2017;;;;
2020/03/06 05:00:30;;;;;;;0.3;0.3;;;;;;;7.3;84.87402;977.4014;;;;
2020/03/06 05:02:55;;;;;;;0.6;0.3;;;;;;;7.24;84.94336;977.5047;;;;
2020/03/06 05:05:20;;;;;;;0.3;0.3;;;;;;;7.18;85.37402;977.4486;;;;
2020/03/06 05:07:45;;;;;;;0.3;0.3;;;;;;;7.23;85.97656;977.4794;;;;
2020/03/06 05:10:10;;;;;;;0.4;0.4;;;;;;;7.26;86.41211;977.5432;;;;
2020/03/06 05:12:35;;;;;;;0.4;0.4;;;;;;;7.24;86.29492;977.6308;;;;
2020/03/06 05:15:00;;;;;;;0.4;0.4;;;;;;;7.22;85.69922;977.5776;;;;
2020/03/06 05:17:26;;;;;;;0.4;0.4;;;;;;;7.25;85.46777;977.5862;;;;
2020/03/06 05:19:51;;;;;;;0.4;0.4;;;;;;;7.23;84.875;977.7316;;;;
2020/03/06 05:22:16;;;;;;;0.3;0.3;;;;;;;7.25;84.20605;977.7897;;;;
2020/03/06 05:24:41;;;;;;;0.4;0.4;;;;;;;7.22;84.09668;977.6717;;;;
2020/03/06 05:27:06;;;;;;;0.3;0.3;;;;;;;7.18;85.60059;977.832;;;;
2020/03/06 05:29:31;;;;;;;0.3;0.3;;;;;;;;;;;;;
2020/03/06 05:31:56;;;;;;;0.3;0.3;;;;;;;;;;;;;
2020/03/06 05:34:21;;;;;;;0.4;0.3;;;;;;;;;;;;;
2020/03/06 05:36:47;;;;;;;0.8;0.4;;;;;;;;;;;;;
2020/03/06 05:39:12;;;;;;;1.2;0.4;;;;;;;;;;;;;
2020/03/06 05:41:37;;;;;;;0.4;0.4;;;;;;;;;;;;;
2020/03/06 05:44:02;;;;;;;0.5;0.4;;;;;;;;;;;;;
2020/03/06 05:46:27;;;;;;;0.9;0.5;;;;;;;;;;;;;
2020/03/06 05:48:52;;;;;;;0.4;0.4;;;;;;;;;;;;;
2020/03/06 05:51:17;;;;;;;0.4;0.4;;;;;;;;;;;;;
2020/03/06 05:53:42;;;;;;;0.5;0.5;;;;;;;;;;;;;
2020/03/06 05:56:07;;;;;;;0.8;0.5;;;;;;;;;;;;;
2020/03/06 05:58:32;;;;;;;0.6;0.6;;;;;;;;;;;;;
2020/03/06 06:00:57;;;;;;;0.4;0.4;;;;;;;;;;;;;
2020/03/06 06:03:22;;;;;;;0.8;0.5;;;;;;;;;;;;;
2020/03/06 06:05:47;;;;;;;1;0.5;;;;;;;;;;;;;
2020/03/06 06:08:12;;;;;;;0.6;0.5;;;;;;;;;;;;;
2020/03/06 06:10:38;;;;;;;0.7;0.4;;;;;;;;;;;;;
2020/03/06 06:13:02;;;;;;;0.4;0.4;;;;;;;;;;;;;
2020/03/06 06:15:27;;;;;;;0.4;0.4;;;;;;;;;;;;;
2020/03/06 06:17:53;;;;;;;0.4;0.4;;;;;;;;;;;;;
2020/03/06 06:20:18;;;;;;;0.7;0.5;;;;;;;;;;;;;
2020/03/06 06:22:43;;;;;;;1.3;0.6;;;;;;;;;;;;;
2020/03/06 06:25:08;;;;;;;0.8;0.6;;;;;;;;;;;;;
2020/03/06 06:27:33;;;;;;;0.4;0.4;;;;;;;;;;;;;
2020/03/06 06:29:58;;;;;;;0.5;0.5;;;;;;;;;;;;;
2020/03/06 06:32:23;;;;;;;0.4;0.4;;;;;;;;;;;;;
2020/03/06 06:34:48;;;;;;;0.5;0.5;;;;;;;;;;;;;
2020/03/06 06:37:13;;;;;;;0.6;0.5;;;;;;;;;;;;;
2020/03/06 06:39:39;;;;;;;0.8;0.5;;;;;;;;;;;;;
2020/03/06 06:42:04;;;;;;;0.5;0.5;;;;;;;;;;;;;
2020/03/06 06:44:29;;;;;;;0.6;0.5;;;;;;;;;;;;;
2020/03/06 06:46:54;;;;;;;0.6;0.5;;;;;;;;;;;;;
2020/03/06 06:49:19;;;;;;;0.6;0.5;;;;;;;;;;;;;
2020/03/06 06:51:44;;;;;;;0.5;0.5;;;;;;;;;;;;;
2020/03/06 06:54:09;;;;;;;0.9;0.5;;;;;;;;;;;;;
2020/03/06 06:56:34;;;;;;;0.6;0.6;;;;;;;;;;;;;
2020/03/06 06:58:59;;;;;;;1;0.7;;;;;;;;;;;;;
2020/03/06 07:01:25;;;;;;;0.6;0.6;;;;;;;;;;;;;
2020/03/06 07:03:50;;;;;;;1.8;0.7;;;;;;;;;;;;;
2020/03/06 07:06:15;;;;;;;1.2;0.8;;;;;;;;;;;;;
2020/03/06 07:08:40;;;;;;;1.1;0.9;;;;;;;;;;;;;
2020/03/06 07:11:05;;;;;;;1.3;0.8;;;;;;;;;;;;;
2020/03/06 07:13:30;;;;;;;1.7;0.7;;;;;;;;;;;;;
2020/03/06 07:15:55;;;;;;;0.7;0.6;;;;;;;;;;;;;
2020/03/06 07:18:20;;;;;;;1.4;0.6;;;;;;;;;;;;;
2020/03/06 07:20:46;;;;;;;0.6;0.6;;;;;;;;;;;;;
2020/03/06 07:23:11;;;;;;;1.3;0.6;;;;;;;;;;;;;
2020/03/06 07:25:36;;;;;;;1.3;0.6;;;;;;;;;;;;;
2020/03/06 07:28:01;;;;;;;0.8;0.7;;;;;;;;;;;;;
2020/03/06 07:30:26;;;;;;;0.9;0.5;;;;;;;;;;;;;
2020/03/06 07:32:51;;;;;;;0.6;0.6;;;;;;;;;;;;;
2020/03/06 07:35:16;;;;;;;1.7;0.5;;;;;;;;;;;;;
2020/03/06 07:37:41;;;;;;;0.6;0.5;;;;;;;;;;;;;
2020/03/06 07:40:06;;;;;;;0.5;0.5;;;;;;;;;;;;;
2020/03/06 07:42:31;;;;;;;1.1;0.5;;;;;;;;;;;;;
2020/03/06 07:44:56;;;;;;;0.6;0.6;;;;;;;;;;;;;
2020/03/06 07:47:22;;;;;;;0.6;0.6;;;;;;;;;;;;;
2020/03/06 07:49:47;;;;;;;1.8;0.9;;;;;;;;;;;;;
2020/03/06 07:52:12;;;;;;;0.5;0.5;;;;;;;;;;;;;
2020/03/06 07:54:37;;;;;;;0.5;0.5;;;;;;;;;;;;;
2020/03/06 07:57:02;;;;;;;0.9;0.6;;;;;;;;;;;;;
2020/03/06 07:59:27;;;;;;;1.3;0.5;;;;;;;;;;;;;
2020/03/06 08:01:52;;;;;;;1.3;0.4;;;;;;;;;;;;;
2020/03/06 08:04:17;;;;;;;0.6;0.6;;;;;;;;;;;;;
2020/03/06 08:06:42;;;;;;;0.5;0.5;;;;;;;;;;;;;
2020/03/06 08:09:07;;;;;;;0.6;0.6;;;;;;;;;;;;;
2020/03/06 08:11:33;;;;;;;1;0.6;;;;;;;;;;;;;
2020/03/06 08:13:58;;;;;;;0.6;0.5;;;;;;;;;;;;;
2020/03/06 08:16:23;;;;;;;0.5;0.5;;;;;;;;;;;;;
2020/03/06 08:18:48;;;;;;;0.9;0.6;;;;;;;;;;;;;
2020/03/06 08:21:13;;;;;;;0.6;0.6;;;;;;;;;;;;;
2020/03/06 08:23:38;;;;;;;0.8;0.6;;;;;;;;;;;;;
2020/03/06 08:26:03;;;;;;;0.6;0.6;;;;;;;;;;;;;
2020/03/06 08:28:29;;;;;;;0.7;0.5;;;;;;;;;;;;;
2020/03/06 08:30:54;;;;;;;0.7;0.6;;;;;;;;;;;;;
2020/03/06 08:33:19;;;;;;;0.5;0.5;;;;;;;;;;;;;
2020/03/06 08:35:44;;;;;;;0.8;0.6;;;;;;;;;;;;;
2020/03/06 08:38:09;;;;;;;0.7;0.7;;;;;;;;;;;;;
2020/03/06 08:40:34;;;;;;;0.7;0.6;;;;;;;;;;;;;
2020/03/06 08:42:59;;;;;;;0.6;0.5;;;;;;;;;;;;;
2020/03/06 08:45:24;;;;;;;1.4;0.5;;;;;;;;;;;;;
2020/03/06 08:47:49;;;;;;;0.8;0.5;;;;;;;;;;;;;
2020/03/06 08:50:15;;;;;;;1.6;0.9;;;;;;;;;;;;;
2020/03/06 08:52:40;;;;;;;0.5;0.5;;;;;;;;;;;;;
2020/03/06 08:55:05;;;;;;;0.9;0.6;;;;;;;;;;;;;
2020/03/06 08:57:30;;;;;;;0.9;0.7;;;;;;;;;;;;;
2020/03/06 08:59:55;;;;;;;0.9;0.7;;;;;;;;;;;;;
2020/03/06 09:02:23;;;;;;;0.7;0.7;;;;;;;;;;;;;
2020/03/06 09:04:49;;;;;;;0.9;0.6;;;;;;;;;;;;;
2020/03/06 09:07:11;;;;;;;0.7;0.6;;;;;;;;;;;;;
2020/03/06 09:09:37;;;;;;;0.7;0.7;;;;;;;;;;;;;
2020/03/06 09:12:01;;;;;;;1;0.7;;;;;;;;;;;;;
2020/03/06 09:14:26;;;;;;;1.6;0.9;;;;;;;;;;;;;
2020/03/06 09:16:51;;;;;;;1.8;0.8;;;;;;;;;;;;;
2020/03/06 09:19:16;;;;;;;1;0.7;;;;;;;;;;;;;
2020/03/06 09:21:41;;;;;;;0.7;0.7;;;;;;;;;;;;;
2020/03/06 09:24:06;;;;;;;1.2;0.6;;;;;;;;;;;;;
2020/03/06 09:26:31;;;;;;;0.7;0.7;;;;;;;;;;;;;
2020/03/06 09:28:56;;;;;;;0.6;0.6;;;;;;;;;;;;;
2020/03/06 09:31:21;;;;;;;0.8;0.7;;;;;;;;;;;;;
2020/03/06 09:33:47;;;;;;;0.8;0.8;;;;;;;;;;;;;
2020/03/06 09:36:12;;;;;;;0.6;0.6;;;;;;;;;;;;;
2020/03/06 09:38:37;;;;;;;0.6;0.6;;;;;;;;;;;;;
2020/03/06 09:41:02;;;;;;;1.2;0.9;;;;;;;;;;;;;
2020/03/06 09:43:27;;;;;;;1.6;0.7;;;;;;;;;;;;;
2020/03/06 09:45:52;;;;;;;1.1;0.7;;;;;;;;;;;;;
2020/03/06 09:48:17;;;;;;;1.4;0.7;;;;;;;;;;;;;
2020/03/06 09:50:42;;;;;;;0.6;0.6;;;;;;;;;;;;;
2020/03/06 09:53:07;;;;;;;0.6;0.6;;;;;;;;;;;;;
2020/03/06 09:55:33;;;;;;;1;0.6;;;;;;;;;;;;;
2020/03/06 09:57:58;;;;;;;1.1;0.7;;;;;;;;;;;;;
2020/03/06 10:00:23;;;;;;;1.9;0.7;;;;;;;;;;;;;
2020/03/06 10:02:48;;;;;;;1.3;0.6;;;;;;;;;;;;;
2020/03/06 10:05:14;;;;;;;0.7;0.7;;;;;;;;;;;;;
2020/03/06 10:07:39;;;;;;;1.2;0.6;;;;;;;;;;;;;
2020/03/06 10:10:04;;;;;;;1;0.7;;;;;;;;;;;;;
2020/03/06 10:12:29;;;;;;;2.1;0.6;;;;;;;;;;;;;
2020/03/06 10:14:54;;;;;;;1;0.7;;;;;;;;;;;;;
2020/03/06 10:17:19;;;;;;;1.4;0.7;;;;;;;;;;;;;
2020/03/06 10:19:44;;;;;;;1.9;0.8;;;;;;;;;;;;;
2020/03/06 10:22:09;;;;;;;1.8;0.8;;;;;;;;;;;;;
2020/03/06 10:24:35;;;;;;;1.6;0.8;;;;;;;;;;;;;
2020/03/06 10:27:00;;;;;;;2.7;1.5;;;;;;;;;;;;;
2020/03/06 10:29:25;;;;;;;1.7;0.7;;;;;;;;;;;;;
2020/03/06 10:31:50;;;;;;;1;0.6;;;;;;;;;;;;;
2020/03/06 10:34:15;;;;;;;0.6;0.5;;;;;;;;;;;;;
2020/03/06 10:36:40;;;;;;;0.8;0.7;;;;;;;;;;;;;
2020/03/06 10:39:05;;;;;;;0.5;0.5;;;;;;;;;;;;;
2020/03/06 10:41:30;;;;;;;0.6;0.5;;;;;;;;;;;;;
2020/03/06 10:43:55;;;;;;;0.5;0.5;;;;;;;;;;;;;
2020/03/06 10:46:21;;;;;;;0.8;0.5;;;;;;;;;;;;;
2020/03/06 10:48:46;;;;;;;0.5;0.5;;;;;;;;;;;;;
2020/03/06 10:51:11;;;;;;;1.2;0.6;;;;;;;;;;;;;
2020/03/06 10:53:36;;;;;;;1.2;0.5;;;;;;;;;;;;;
2020/03/06 10:56:01;;;;;;;0.8;0.8;;;;;;;;;;;;;
2020/03/06 10:58:26;;;;;;;1.6;0.6;;;;;;;;;;;;;
2020/03/06 11:00:51;;;;;;;0.5;0.5;;;;;;;;;;;;;
2020/03/06 11:03:16;;;;;;;0.5;0.5;;;;;;;;;;;;;
2020/03/06 11:05:41;;;;;;;0.9;0.6;;;;;;;;;;;;;
2020/03/06 11:08:07;;;;;;;0.8;0.6;;;;;;;;;;;;;
2020/03/06 11:10:32;;;;;;;0.4;0.4;;;;;;;;;;;;;
2020/03/06 11:12:57;;;;;;;0.5;0.5;;;;;;;;;;;;;
2020/03/06 11:15:22;;;;;;;0.4;0.4;;;;;;;;;;;;;
2020/03/06 11:17:47;;;;;;;0.5;0.5;;;;;;;;;;;;;
2020/03/06 11:20:12;;;;;;;0.7;0.7;;;;;;;;;;;;;
2020/03/06 11:22:37;;;;;;;1.1;0.5;;;;;;;;;;;;;
2020/03/06 11:25:02;;;;;;;1.4;0.6;;;;;;;;;;;;;
2020/03/06 11:27:27;;;;;;;0.5;0.5;;;;;;;;;;;;;
2020/03/06 11:29:53;;;;;;;0.7;0.6;;;;;;;;;;;;;
2020/03/06 11:32:17;;;;;;;1.2;0.5;;;;;;;;;;;;;
2020/03/06 11:34:42;;;;;;;1.3;0.7;;;;;;;;;;;;;
2020/03/06 11:37:07;;;;;;;0.8;0.6;;;;;;;;;;;;;
2020/03/06 11:39:33;;;;;;;0.5;0.5;;;;;;;;;;;;;
2020/03/06 11:41:58;;;;;;;0.5;0.5;;;;;;;;;;;;;
2020/03/06 11:44:23;;;;;;;0.7;0.6;;;;;;;;;;;;;
2020/03/06 11:46:48;;;;;;;1.5;0.8;;;;;;;;;;;;;
2020/03/06 11:49:13;;;;;;;1.4;0.6;;;;;;;;;;;;;
2020/03/06 11:51:38;;;;;;;0.6;0.6;;;;;;;;;;;;;
2020/03/06 11:54:03;;;;;;;0.5;0.5;;;;;;;;;;;;;
2020/03/06 11:56:28;;;;;;;0.7;0.7;;;;;;;;;;;;;
2020/03/06 11:58:54;;;;;;;0.9;0.7;;;;;;;;;;;;;
2020/03/06 12:01:19;;;;;;;0.7;0.7;;;;;;;;;;;;;
2020/03/06 12:03:44;;;;;;;2.8;2.3;;;;;;;;;;;;;
2020/03/06 12:06:09;;;;;;;9;6.1;;;;;;;;;;;;;
2020/03/06 12:08:34;;;;;;;5.7;3.1;;;;;;;;;;;;;
2020/03/06 12:10:59;;;;;;;3.9;2.7;;;;;;;;;;;;;
2020/03/06 12:13:24;;;;;;;3.1;1.8;;;;;;;;;;;;;
2020/03/06 12:15:49;;;;;;;5.6;4.6;;;;;;;;;;;;;
2020/03/06 12:18:14;;;;;;;1.7;1.6;;;;;;;;;;;;;
2020/03/06 12:20:39;;;;;;;3;1.9;;;;;;;;;;;;;
2020/03/06 12:23:05;;;;;;;1.8;1.5;;;;;;;;;;;;;
2020/03/06 12:25:30;;;;;;;2.2;1.1;;;;;;;;;;;;;
2020/03/06 12:27:55;;;;;;;0.8;0.8;;;;;;;;;;;;;
2020/03/06 12:30:20;;;;;;;1.1;1;;;;;;;;;;;;;
2020/03/06 12:32:45;;;;;;;2;1.1;;;;;;;;;;;;;
2020/03/06 12:35:10;;;;;;;1;0.9;;;;;;;;;;;;;
2020/03/06 12:37:35;;;;;;;0.8;0.8;;;;;;;;;;;;;
2020/03/06 12:40:00;;;;;;;0.8;0.8;;;;;;;;;;;;;
2020/03/06 12:42:25;;;;;;;1.2;1;;;;;;;;;;;;;
2020/03/06 12:44:50;;;;;;;0.9;0.8;;;;;;;;;;;;;
2020/03/06 12:47:15;;;;;;;0.6;0.6;;;;;;;;;;;;;
2020/03/06 12:49:41;;;;;;;1.5;0.8;;;;;;;;;;;;;
2020/03/06 12:52:06;;;;;;;0.8;0.8;;;;;;;;;;;;;
2020/03/06 12:54:31;;;;;;;0.8;0.8;;;;;;;;;;;;;
2020/03/06 12:56:56;;;;;;;1.7;1.5;;;;;;;;;;;;;
2020/03/06 12:59:21;;;;;;;1.6;1.1;;;;;;;;;;;;;
2020/03/06 13:01:46;;;;;;;1.1;1;;;;;;;;;;;;;
2020/03/06 13:04:11;;;;;;;1.4;1;;;;;;;;;;;;;
2020/03/06 13:06:36;;;;;;;0.9;0.7;;;;;;;;;;;;;
2020/03/06 13:09:02;;;;;;;1.4;0.8;;;;;;;;;;;;;
2020/03/06 13:11:26;;;;;;;1.2;0.8;;;;;;;;;;;;;
2020/03/06 13:13:51;;;;;;;1;0.8;;;;;;;;;;;;;
2020/03/06 13:16:16;;;;;;;0.9;0.8;;;;;;;;;;;;;
2020/03/06 13:18:42;;;;;;;1.1;0.8;;;;;;;;;;;;;
2020/03/06 13:21:07;;;;;;;0.8;0.8;;;;;;;;;;;;;
2020/03/06 13:23:32;;;;;;;1.3;1.1;;;;;;;;;;;;;
2020/03/06 13:25:57;;;;;;;0.8;0.8;;;;;;;;;;;;;
2020/03/06 13:28:22;;;;;;;1.6;0.9;;;;;;;;;;;;;
2020/03/06 13:30:47;;;;;;;0.8;0.8;;;;;;;;;;;;;
2020/03/06 13:33:12;;;;;;;1.1;0.9;;;;;;;;;;;;;
2020/03/06 13:35:37;;;;;;;1.8;0.8;;;;;;;;;;;;;
2020/03/06 13:38:02;;;;;;;0.9;0.8;;;;;;;;;;;;;
2020/03/06 13:40:27;;;;;;;2.1;1;;;;;;;;;;;;;
2020/03/06 13:42:52;;;;;;;1.5;0.9;;;;;;;;;;;;;
2020/03/06 13:45:18;;;;;;;1.1;0.8;;;;;;;;;;;;;
2020/03/06 13:47:43;;;;;;;1.5;1.1;;;;;;;;;;;;;
2020/03/06 13:50:08;;;;;;;1;0.9;;;;;;;;;;;;;
2020/03/06 13:52:33;;;;;;;0.9;0.9;;;;;;;;;;;;;
2020/03/06 13:54:58;;;;;;;1.5;0.8;;;;;;;;;;;;;
2020/03/06 13:57:23;;;;;;;1.4;1.1;;;;;;;;;;;;;
2020/03/06 13:59:48;;;;;;;1.1;1;;;;;;;;;;;;;
2020/03/06 14:02:13;;;;;;;1.7;1.1;;;;;;;;;;;;;
2020/03/06 14:04:39;;;;;;;1.1;1;;;;;;;;;;;;;
2020/03/06 14:07:04;;;;;;;1.4;1.1;;;;;;;;;;;;;
2020/03/06 14:09:29;;;;;;;1.2;0.9;;;;;;;;;;;;;
2020/03/06 14:11:54;;;;;;;1.6;1.3;;;;;;;;;;;;;
2020/03/06 14:14:19;;;;;;;1.2;1.1;;;;;;;;;;;;;
2020/03/06 14:16:44;;;;;;;1.3;1.2;;;;;;;;;;;;;
2020/03/06 14:19:09;;;;;;;2.2;1.4;;;;;;;;;;;;;
2020/03/06 14:21:34;;;;;;;1.5;1.2;;;;;;;;;;;;;
2020/03/06 14:23:59;;;;;;;1.7;1.2;;;;;;;;;;;;;
2020/03/06 14:26:24;;;;;;;1.9;1.5;;;;;;;;;;;;;
2020/03/06 14:28:49;;;;;;;2.4;1.4;;;;;;;;;;;;;
2020/03/06 14:31:15;;;;;;;1.7;1.3;;;;;;;;;;;;;
2020/03/06 14:33:39;;;;;;;2.3;1.6;;;;;;;;;;;;;
2020/03/06 14:36:05;;;;;;;1.5;1.4;;;;;;;;;;;;;
2020/03/06 14:38:30;;;;;;;1.5;1.4;;;;;;;;;;;;;
2020/03/06 14:40:55;;;;;;;1.7;1.6;;;;;;;;;;;;;
2020/03/06 14:43:35;;;;;;;1.8;1.5;;;;;;;;;;;;;
2020/03/06 14:45:45;;;;;;;2;1.6;;;;;;;;;;;;;
2020/03/06 14:48:10;;;;;;;2.4;1.7;;;;;;;;;;;;;
2020/03/06 14:50:35;;;;;;;1.9;1.7;;;;;;;;;;;;;
2020/03/06 14:53:00;;;;;;;2.2;1.8;;;;;;;;;;;;;
2020/03/06 14:55:25;;;;;;;2.8;2.1;;;;;;;;;;;;;
2020/03/06 14:57:50;;;;;;;2.3;2;;;;;;;;;;;;;
2020/03/06 15:00:16;;;;;;;2.4;2.2;;;;;;;;;;;;;
2020/03/06 15:02:42;;;;;;;2.7;2.3;;;;;;;;;;;;;
2020/03/06 15:05:06;;;;;;;3.2;2.5;;;;;;;;;;;;;
2020/03/06 15:07:31;;;;;;;3;2.5;;;;;;;;;;;;;
2020/03/06 15:09:56;;;;;;;4.4;2.6;;;;;;;;;;;;;
2020/03/06 15:12:21;;;;;;;4.9;2.9;;;;;;;;;;;;;
2020/03/06 15:14:47;;;;;;;3.5;2.4;;;;;;;;;;;;;
2020/03/06 15:17:11;;;;;;;2.5;2.2;;;;;;;;;;;;;
2020/03/06 15:19:36;;;;;;;3;2.7;;;;;;;;;;;;;
2020/03/06 15:22:01;;;;;;;3.8;2.6;;;;;;;;;;;;;
2020/03/06 15:24:26;;;;;;;3;2.6;;;;;;;;;;;;;
2020/03/06 15:26:52;;;;;;;3;2.7;;;;;;;;;;;;;
2020/03/06 15:29:17;;;;;;;3;2.7;;;;;;;;;;;;;
2020/03/06 15:31:42;;;;;;;3.9;3.4;;;;;;;;;;;;;
2020/03/06 15:34:07;;;;;;;3.8;3.4;;;;;;;;;;;;;
2020/03/06 15:36:32;;;;;;;4.7;3.6;;;;;;;;;;;;;
2020/03/06 15:38:57;;;;;;;4.8;3.9;;;;;;;;;;;;;
2020/03/06 15:41:22;;;;;;;4.9;4.3;;;;;;;;;;;;;
2020/03/06 15:43:47;;;;;;;5.3;4;;;;;;;;;;;;;
2020/03/06 15:46:13;;;;;;;5.2;4.3;;;;;;;;;;;;;
2020/03/06 15:48:38;;;;;;;5.7;4.6;;;;;;;;;;;;;
2020/03/06 15:51:03;;;;;;;5.6;4.5;;;;;;;;;;;;;
2020/03/06 15:53:28;;;;;;;5.1;4.2;;;;;;;;;;;;;
2020/03/06 15:55:53;;;;;;;5.7;4.6;;;;;;;;;;;;;
2020/03/06 15:58:18;;;;;;;5.8;4.4;;;;;;;;;;;;;
2020/03/06 16:00:43;;;;;;;6.6;4.5;;;;;;;;;;;;;
2020/03/06 16:03:08;;;;;;;5.1;4.5;;;;;;;;;;;;;
2020/03/06 16:05:33;;;;;;;5.6;4.8;;;;;;;;;;;;;
2020/03/06 16:07:58;;;;;;;6.4;5.2;;;;;;;;;;;;;
2020/03/06 16:10:24;;;;;;;7.6;5.3;;;;;;;;;;;;;
2020/03/06 16:12:49;;;;;;;5.8;5.2;;;;;;;;;;;;;
2020/03/06 16:15:14;;;;;;;5.8;5.2;;;;;;;;;;;;;
2020/03/06 16:17:39;;;;;;;6.4;5;;;;;;;;;;;;;
2020/03/06 16:20:04;;;;;;;7.2;5.5;;;;;;;;;;;;;
2020/03/06 16:22:29;;;;;;;7.9;5.6;;;;;;;;;;;;;
2020/03/06 16:24:54;;;;;;;7.3;5.7;;;;;;;;;;;;;
2020/03/06 16:27:20;;;;;;;6.3;5.5;;;;;;;;;;;;;
2020/03/06 16:29:45;;;;;;;6.2;5.6;;;;;;;;;;;;;
2020/03/06 16:32:10;;;;;;;6.8;5.6;;;;;;;;;;;;;
2020/03/06 16:34:35;;;;;;;6.8;6;;;;;;;;;;;;;
2020/03/06 16:37:00;;;;;;;6.6;5.8;;;;;;;;;;;;;
2020/03/06 16:39:25;;;;;;;7.7;6.2;;;;;;;;;;;;;
2020/03/06 16:41:50;;;;;;;6.7;6;;;;;;;;;;;;;
2020/03/06 16:44:15;;;;;;;7.5;6.2;;;;;;;;;;;;;
2020/03/06 16:46:40;;;;;;;8;6.6;;;;;;;;;;;;;
2020/03/06 16:49:05;;;;;;;8.2;6.3;;;;;;;;;;;;;
2020/03/06 16:51:30;;;;;;;7.1;6.4;;;;;;;;;;;;;
2020/03/06 16:53:55;;;;;;;7.2;6.3;;;;;;;;;;;;;
2020/03/06 16:56:21;;;;;;;8.2;6.6;;;;;;;;;;;;;
2020/03/06 16:58:46;;;;;;;6.8;6.1;;;;;;;;;;;;;
2020/03/06 17:01:11;;;;;;;7.3;6.2;;;;;;;;;;;;;
2020/03/06 17:03:36;;;;;;;6.7;5.9;;;;;;;;;;;;;
2020/03/06 17:06:01;;;;;;;7.5;6.4;;;;;;;;;;;;;
2020/03/06 17:08:26;;;;;;;8.9;7.1;;;;;;;;;;;;;
2020/03/06 17:10:51;;;;;;;8.6;7.2;;;;;;;;;;;;;
2020/03/06 17:13:16;;;;;;;9.1;7.5;;;;;;;;;;;;;
2020/03/06 17:15:41;;;;;;;9.2;7.4;;;;;;;;;;;;;
2020/03/06 17:18:06;;;;;;;9.3;7.8;;;;;;;;;;;;;
2020/03/06 17:20:31;;;;;;;11.1;8.9;;;;;;;;;;;;;
2020/03/06 17:22:57;;;;;;;10.5;8.7;;;;;;;;;;;;;
2020/03/06 17:25:22;;;;;;;10.3;8.6;;;;;;;;;;;;;
2020/03/06 17:27:47;;;;;;;11.9;8.7;;;;;;;;;;;;;
2020/03/06 17:30:12;;;;;;;11.2;8.8;;;;;;;;;;;;;
2020/03/06 17:32:37;;;;;;;11.1;9.3;;;;;;;;;;;;;
2020/03/06 17:35:02;;;;;;;16.5;12.8;;;;;;;;;;;;;
2020/03/06 17:37:27;;;;;;;13.7;9.9;;;;;;;;;;;;;
2020/03/06 17:39:52;;;;;;;11.1;9.2;;;;;;;;;;;;;
2020/03/06 17:42:17;;;;;;;12.2;9.7;;;;;;;;;;;;;
2020/03/06 17:44:43;;;;;;;14.1;9.9;;;;;;;;;;;;;
2020/03/06 17:47:08;;;;;;;12.2;9.6;;;;;;;;;;;;;
2020/03/06 17:49:33;;;;;;;13.6;10.3;;;;;;;;;;;;;
2020/03/06 17:51:58;;;;;;;12.4;10.1;;;;;;;;;;;;;
2020/03/06 17:54:23;;;;;;;12.8;10;;;;;;;;;;;;;
2020/03/06 17:56:48;;;;;;;12.4;10.1;;;;;;;;;;;;;
2020/03/06 17:59:13;;;;;;;13.1;10.7;;;;;;;;;;;;;
2020/03/06 18:01:38;;;;;;;14;10.5;;;;;;;;;;;;;
2020/03/06 18:04:03;;;;;;;12.7;10.4;;;;;;;;;;;;;
2020/03/06 18:06:29;;;;;;;13.6;10.5;;;;;;;;;;;;;
2020/03/06 18:08:54;;;;;;;14.4;10.9;;;;;;;;;;;;;
2020/03/06 18:11:19;;;;;;;15.9;11.2;;;;;;;;;;;;;
2020/03/06 18:13:44;;;;;;;16;12;;;;;;;;;;;;;
2020/03/06 18:16:09;;;;;;;16.3;12.1;;;;;;;;;;;;;
2020/03/06 18:18:34;;;;;;;17.4;13;;;;;;;;;;;;;
2020/03/06 18:20:59;;;;;;;16.8;13.3;;;;;;;;;;;;;
2020/03/06 18:23:24;;;;;;;18.1;13.8;;;;;;;;;;;;;
2020/03/06 18:25:49;;;;;;;19.9;14.4;;;;;;;;;;;;;
2020/03/06 18:28:14;;;;;;;20.4;14.9;;;;;;;;;;;;;
2020/03/06 18:30:39;;;;;;;22.1;15.7;;;;;;;;;;;;;
2020/03/06 18:33:04;;;;;;;21.2;15.2;;;;;;;;;;;;;
2020/03/06 18:35:30;;;;;;;22.2;15.7;;;;;;;;;;;;;
2020/03/06 18:37:55;;;;;;;22.9;15.7;;;;;;;;;;;;;
2020/03/06 18:40:20;;;;;;;20.7;14.9;;;;;;;;;;;;;
2020/03/06 18:42:45;;;;;;;20.7;15.7;;;;;;;;;;;;;
2020/03/06 18:45:10;;;;;;;19.9;15.1;;;;;;;;;;;;;
2020/03/06 18:47:35;;;;;;;19.5;15;;;;;;;;;;;;;
2020/03/06 18:50:00;;;;;;;20;14.8;;;;;;;;;;;;;
2020/03/06 18:52:25;;;;;;;20.6;14.7;;;;;;;;;;;;;
2020/03/06 18:54:50;;;;;;;21.1;14.8;;;;;;;;;;;;;
2020/03/06 18:57:16;;;;;;;20.7;14.8;;;;;;;;;;;;;
2020/03/06 18:59:41;;;;;;;21;15.4;;;;;;;;;;;;;
2020/03/06 19:02:06;;;;;;;21.4;15;;;;;;;;;;;;;
2020/03/06 19:04:31;;;;;;;21.8;15.6;;;;;;;;;;;;;
2020/03/06 19:06:56;;;;;;;21.4;15;;;;;;;;;;;;;
2020/03/06 19:09:21;;;;;;;21.9;15.9;;;;;;;;;;;;;
2020/03/06 19:11:46;;;;;;;23.6;15.9;;;;;;;;;;;;;
2020/03/06 19:14:11;;;;;;;22.7;15.3;;;;;;;;;;;;;
2020/03/06 19:16:37;;;;;;;24.6;16.1;;;;;;;;;;;;;
2020/03/06 19:19:02;;;;;;;23.4;15.6;;;;;;;;;;;;;
2020/03/06 19:21:27;;;;;;;21.9;15.7;;;;;;;;;;;;;
2020/03/06 19:23:52;;;;;;;25.4;16.9;;;;;;;;;;;;;
2020/03/06 19:26:17;;;;;;;28.4;19.1;;;;;;;;;;;;;
2020/03/06 19:28:42;;;;;;;22.8;16.1;;;;;;;;;;;;;
2020/03/06 19:31:07;;;;;;;24.1;16.9;;;;;;;;;;;;;
2020/03/06 19:33:32;;;;;;;27.5;18.1;;;;;;;;;;;;;
2020/03/06 19:35:57;;;;;;;23.6;16.7;;;;;;;;;;;;;
2020/03/06 19:38:23;;;;;;;22.6;15.1;;;;;;;;;;;;;
2020/03/06 19:40:48;;;;;;;21.8;16.2;;;;;;;;;;;;;
2020/03/06 19:43:13;;;;;;;21.6;15.3;;;;;;;;;;;;;
2020/03/06 19:45:38;;;;;;;22.2;15.1;;;;;;;;;;;;;